sensor_id;sensor_type;location;lat;lon;timestamp;pressure;altitude;pressure_sealevel;temperature;humidity
69855;BME280;57146;48.140;16.304;2023-06-26T00:01:47;99405.63;;;18.25;69.35
69855;BME280;57146;48.140;16.304;2023-06-26T00:04:16;99414.25;;;18.18;69.13
69855;BME280;57146;48.140;16.304;2023-06-26T00:06:44;99413.81;;;18.16;69.19
69855;BME280;57146;48.140;16.304;2023-06-26T00:09:11;99399.34;;;18.17;69.46
69855;BME280;57146;48.140;16.304;2023-06-26T00:11:39;99412.59;;;18.13;69.54
69855;BME280;57146;48.140;16.304;2023-06-26T00:14:06;99416.66;;;18.07;69.51
69855;BME280;57146;48.140;16.304;2023-06-26T00:16:33;99423.38;;;18.01;69.78
69855;BME280;57146;48.140;16.304;2023-06-26T00:19:00;99422.84;;;17.95;70.00
69855;BME280;57146;48.140;16.304;2023-06-26T00:21:27;99419.31;;;17.91;70.09
69855;BME280;57146;48.140;16.304;2023-06-26T00:23:54;99427.22;;;17.88;70.25
69855;BME280;57146;48.140;16.304;2023-06-26T00:26:21;99412.72;;;17.85;70.41
69855;BME280;57146;48.140;16.304;2023-06-26T00:28:49;99418.75;;;17.82;70.39
69855;BME280;57146;48.140;16.304;2023-06-26T00:31:17;99419.06;;;17.81;70.33
69855;BME280;57146;48.140;16.304;2023-06-26T00:33:44;99418.66;;;17.79;70.54
69855;BME280;57146;48.140;16.304;2023-06-26T00:36:11;99419.34;;;17.76;70.49
69855;BME280;57146;48.140;16.304;2023-06-26T00:38:38;99425.66;;;17.71;70.53
69855;BME280;57146;48.140;16.304;2023-06-26T00:41:06;99413.03;;;17.68;70.63
69855;BME280;57146;48.140;16.304;2023-06-26T00:43:33;99425.22;;;17.69;70.80
69855;BME280;57146;48.140;16.304;2023-06-26T00:46:00;99414.16;;;17.67;70.96
69855;BME280;57146;48.140;16.304;2023-06-26T00:48:29;99414.59;;;17.69;70.90
69855;BME280;57146;48.140;16.304;2023-06-26T00:50:56;99414.16;;;17.67;71.10
69855;BME280;57146;48.140;16.304;2023-06-26T00:53:25;99406.84;;;17.64;71.55
69855;BME280;57146;48.140;16.304;2023-06-26T00:55:52;99410.91;;;17.58;71.97
69855;BME280;57146;48.140;16.304;2023-06-26T00:58:22;99408.47;;;17.53;71.80
69855;BME280;57146;48.140;16.304;2023-06-26T01:00:51;99407.34;;;17.54;71.43
69855;BME280;57146;48.140;16.304;2023-06-26T01:03:20;99399.72;;;17.52;71.11
69855;BME280;57146;48.140;16.304;2023-06-26T01:05:48;99400.84;;;17.51;71.17
69855;BME280;57146;48.140;16.304;2023-06-26T01:08:18;99401.25;;;17.53;71.33
69855;BME280;57146;48.140;16.304;2023-06-26T01:10:46;99393.19;;;17.50;71.56
69855;BME280;57146;48.140;16.304;2023-06-26T01:13:14;99400.41;;;17.49;71.83
69855;BME280;57146;48.140;16.304;2023-06-26T01:15:43;99398.41;;;17.46;72.22
69855;BME280;57146;48.140;16.304;2023-06-26T01:18:10;99394.56;;;17.43;72.57
69855;BME280;57146;48.140;16.304;2023-06-26T01:20:40;99406.47;;;17.34;72.80
69855;BME280;57146;48.140;16.304;2023-06-26T01:28:42;99397.44;;;17.22;73.31
69855;BME280;57146;48.140;16.304;2023-06-26T01:31:10;99394.25;;;17.17;73.03
69855;BME280;57146;48.140;16.304;2023-06-26T01:33:40;99390.28;;;17.11;73.51
69855;BME280;57146;48.140;16.304;2023-06-26T01:36:09;99394.75;;;17.07;73.82
69855;BME280;57146;48.140;16.304;2023-06-26T01:38:37;99396.97;;;17.05;73.75
69855;BME280;57146;48.140;16.304;2023-06-26T01:41:05;99389.31;;;17.03;74.18
69855;BME280;57146;48.140;16.304;2023-06-26T01:46:21;99391.47;;;16.97;74.38
69855;BME280;57146;48.140;16.304;2023-06-26T01:49:27;99388.28;;;16.92;74.57
69855;BME280;57146;48.140;16.304;2023-06-26T01:57:40;99386.97;;;16.86;75.17
69855;BME280;57146;48.140;16.304;2023-06-26T02:00:09;99380.88;;;16.85;75.44
69855;BME280;57146;48.140;16.304;2023-06-26T02:02:41;99380.88;;;16.85;75.13
69855;BME280;57146;48.140;16.304;2023-06-26T02:05:12;99378.22;;;16.85;75.08
69855;BME280;57146;48.140;16.304;2023-06-26T02:07:40;99376.56;;;16.81;75.29
69855;BME280;57146;48.140;16.304;2023-06-26T02:10:07;99371.94;;;16.78;75.30
69855;BME280;57146;48.140;16.304;2023-06-26T02:12:37;99377.16;;;16.74;75.03
69855;BME280;57146;48.140;16.304;2023-06-26T02:15:05;99380.03;;;16.69;75.68
69855;BME280;57146;48.140;16.304;2023-06-26T02:17:33;99378.03;;;16.66;75.74
69855;BME280;57146;48.140;16.304;2023-06-26T02:20:00;99378.47;;;16.68;76.32
69855;BME280;57146;48.140;16.304;2023-06-26T02:22:27;99371.97;;;16.65;76.08
69855;BME280;57146;48.140;16.304;2023-06-26T02:24:56;99374.72;;;16.69;75.95
69855;BME280;57146;48.140;16.304;2023-06-26T02:27:23;99376.66;;;16.72;76.06
69855;BME280;57146;48.140;16.304;2023-06-26T02:29:52;99374.50;;;16.74;75.96
69855;BME280;57146;48.140;16.304;2023-06-26T02:32:19;99376.25;;;16.70;75.73
69855;BME280;57146;48.140;16.304;2023-06-26T02:34:49;99376.94;;;16.67;75.57
69855;BME280;57146;48.140;16.304;2023-06-26T02:37:16;99379.84;;;16.62;76.20
69855;BME280;57146;48.140;16.304;2023-06-26T02:39:43;99374.84;;;16.60;76.12
69855;BME280;57146;48.140;16.304;2023-06-26T02:42:38;99383.06;;;16.55;76.42
69855;BME280;57146;48.140;16.304;2023-06-26T02:45:06;99382.84;;;16.48;76.67
69855;BME280;57146;48.140;16.304;2023-06-26T02:47:33;99382.50;;;16.49;76.30
69855;BME280;57146;48.140;16.304;2023-06-26T02:50:00;99382.41;;;16.46;76.44
69855;BME280;57146;48.140;16.304;2023-06-26T02:52:40;99385.41;;;16.44;76.59
69855;BME280;57146;48.140;16.304;2023-06-26T02:55:07;99378.53;;;16.43;76.31
69855;BME280;57146;48.140;16.304;2023-06-26T02:57:38;99385.63;;;16.39;76.76
69855;BME280;57146;48.140;16.304;2023-06-26T03:00:06;99391.50;;;16.33;76.39
69855;BME280;57146;48.140;16.304;2023-06-26T03:02:38;99390.31;;;16.30;76.88
69855;BME280;57146;48.140;16.304;2023-06-26T03:05:09;99394.03;;;16.29;77.40
69855;BME280;57146;48.140;16.304;2023-06-26T03:07:37;99394.03;;;16.29;77.41
69855;BME280;57146;48.140;16.304;2023-06-26T03:10:04;99398.16;;;16.26;77.60
69855;BME280;57146;48.140;16.304;2023-06-26T03:12:33;99402.47;;;16.31;77.19
69855;BME280;57146;48.140;16.304;2023-06-26T03:15:00;99396.28;;;16.27;77.37
69855;BME280;57146;48.140;16.304;2023-06-26T03:17:27;99393.63;;;16.27;77.55
69855;BME280;57146;48.140;16.304;2023-06-26T03:20:01;99396.50;;;16.22;77.72
69855;BME280;57146;48.140;16.304;2023-06-26T03:22:38;99403.69;;;16.21;78.16
69855;BME280;57146;48.140;16.304;2023-06-26T03:25:06;99408.22;;;16.21;78.24
69855;BME280;57146;48.140;16.304;2023-06-26T03:27:34;99400.25;;;16.21;78.85
69855;BME280;57146;48.140;16.304;2023-06-26T03:30:02;99406.03;;;16.23;78.13
69855;BME280;57146;48.140;16.304;2023-06-26T03:32:29;99402.72;;;16.26;78.33
69855;BME280;57146;48.140;16.304;2023-06-26T03:34:56;99400.81;;;16.26;78.61
69855;BME280;57146;48.140;16.304;2023-06-26T03:37:24;99400.06;;;16.26;78.77
69855;BME280;57146;48.140;16.304;2023-06-26T03:39:51;99400.06;;;16.26;78.77
69855;BME280;57146;48.140;16.304;2023-06-26T03:42:43;99405.00;;;16.27;79.27
69855;BME280;57146;48.140;16.304;2023-06-26T03:45:12;99403.13;;;16.28;79.13
69855;BME280;57146;48.140;16.304;2023-06-26T03:47:42;99409.22;;;16.28;79.08
69855;BME280;57146;48.140;16.304;2023-06-26T03:50:09;99405.78;;;16.28;79.88
69855;BME280;57146;48.140;16.304;2023-06-26T03:52:36;99407.00;;;16.31;79.96
69855;BME280;57146;48.140;16.304;2023-06-26T03:55:05;99411.56;;;16.30;80.28
69855;BME280;57146;48.140;16.304;2023-06-26T03:57:36;99410.88;;;16.33;80.01
69855;BME280;57146;48.140;16.304;2023-06-26T04:00:04;99412.84;;;16.36;80.00
69855;BME280;57146;48.140;16.304;2023-06-26T04:02:40;99417.06;;;16.37;79.96
69855;BME280;57146;48.140;16.304;2023-06-26T04:05:08;99418.63;;;16.38;80.33
69855;BME280;57146;48.140;16.304;2023-06-26T04:07:36;99415.28;;;16.41;80.63
69855;BME280;57146;48.140;16.304;2023-06-26T04:10:06;99419.19;;;16.44;80.72
69855;BME280;57146;48.140;16.304;2023-06-26T04:12:35;99411.72;;;16.49;80.46
69855;BME280;57146;48.140;16.304;2023-06-26T04:15:02;99417.91;;;16.53;79.86
69855;BME280;57146;48.140;16.304;2023-06-26T04:17:31;99416.59;;;16.60;80.24
69855;BME280;57146;48.140;16.304;2023-06-26T04:19:57;99423.22;;;16.66;80.16
69855;BME280;57146;48.140;16.304;2023-06-26T04:22:30;99410.03;;;16.69;80.18
69855;BME280;57146;48.140;16.304;2023-06-26T04:24:57;99419.69;;;16.74;80.52
69855;BME280;57146;48.140;16.304;2023-06-26T04:27:25;99421.00;;;16.80;80.73
69855;BME280;57146;48.140;16.304;2023-06-26T04:29:53;99413.13;;;16.84;80.92
69855;BME280;57146;48.140;16.304;2023-06-26T04:32:22;99427.63;;;16.86;81.27
69855;BME280;57146;48.140;16.304;2023-06-26T04:34:49;99417.88;;;16.90;81.09
69855;BME280;57146;48.140;16.304;2023-06-26T04:37:17;99420.28;;;16.95;81.39
69855;BME280;57146;48.140;16.304;2023-06-26T04:39:44;99422.72;;;17.01;81.55
69855;BME280;57146;48.140;16.304;2023-06-26T04:42:12;99414.47;;;17.06;81.48
69855;BME280;57146;48.140;16.304;2023-06-26T04:44:40;99416.47;;;17.09;81.63
69855;BME280;57146;48.140;16.304;2023-06-26T04:47:07;99415.44;;;17.13;81.67
69855;BME280;57146;48.140;16.304;2023-06-26T04:49:35;99423.97;;;17.19;80.34
69855;BME280;57146;48.140;16.304;2023-06-26T04:52:05;99421.13;;;17.28;79.15
69855;BME280;57146;48.140;16.304;2023-06-26T04:54:32;99418.34;;;17.36;78.95
69855;BME280;57146;48.140;16.304;2023-06-26T04:57:01;99425.38;;;17.44;79.29
69855;BME280;57146;48.140;16.304;2023-06-26T04:59:28;99430.53;;;17.53;79.63
69855;BME280;57146;48.140;16.304;2023-06-26T05:01:55;99422.91;;;17.67;75.00
69855;BME280;57146;48.140;16.304;2023-06-26T05:04:22;99429.81;;;17.84;74.04
69855;BME280;57146;48.140;16.304;2023-06-26T05:06:50;99431.28;;;17.98;73.08
69855;BME280;57146;48.140;16.304;2023-06-26T05:09:17;99426.28;;;18.12;72.16
69855;BME280;57146;48.140;16.304;2023-06-26T05:11:45;99422.72;;;18.24;71.85
69855;BME280;57146;48.140;16.304;2023-06-26T05:14:12;99422.88;;;18.31;71.82
69855;BME280;57146;48.140;16.304;2023-06-26T05:16:40;99417.78;;;18.41;71.52
69855;BME280;57146;48.140;16.304;2023-06-26T05:19:06;99425.94;;;18.49;71.25
69855;BME280;57146;48.140;16.304;2023-06-26T05:21:36;99416.69;;;18.62;71.01
69855;BME280;57146;48.140;16.304;2023-06-26T05:24:03;99420.38;;;18.73;69.90
69855;BME280;57146;48.140;16.304;2023-06-26T05:26:32;99421.38;;;18.84;69.22
69855;BME280;57146;48.140;16.304;2023-06-26T05:28:59;99428.81;;;18.95;69.09
69855;BME280;57146;48.140;16.304;2023-06-26T05:31:26;99433.16;;;19.03;68.44
69855;BME280;57146;48.140;16.304;2023-06-26T05:33:55;99416.19;;;19.11;67.61
69855;BME280;57146;48.140;16.304;2023-06-26T05:36:31;99425.84;;;19.19;67.38
69855;BME280;57146;48.140;16.304;2023-06-26T05:38:59;99426.81;;;19.30;67.48
69855;BME280;57146;48.140;16.304;2023-06-26T05:41:26;99424.97;;;19.34;67.35
69855;BME280;57146;48.140;16.304;2023-06-26T05:43:53;99418.66;;;19.43;66.96
69855;BME280;57146;48.140;16.304;2023-06-26T05:46:23;99426.44;;;19.51;67.05
69855;BME280;57146;48.140;16.304;2023-06-26T05:48:50;99427.75;;;19.61;67.13
69855;BME280;57146;48.140;16.304;2023-06-26T05:51:17;99427.19;;;19.71;67.16
69855;BME280;57146;48.140;16.304;2023-06-26T05:53:44;99423.50;;;19.79;66.64
69855;BME280;57146;48.140;16.304;2023-06-26T05:56:15;99430.84;;;19.86;66.15
69855;BME280;57146;48.140;16.304;2023-06-26T05:58:43;99424.44;;;19.91;65.54
69855;BME280;57146;48.140;16.304;2023-06-26T06:01:11;99427.22;;;19.98;65.61
69855;BME280;57146;48.140;16.304;2023-06-26T06:03:39;99426.91;;;20.03;65.43
69855;BME280;57146;48.140;16.304;2023-06-26T06:06:06;99418.59;;;20.08;65.02
69855;BME280;57146;48.140;16.304;2023-06-26T06:08:34;99421.41;;;20.19;65.96
69855;BME280;57146;48.140;16.304;2023-06-26T06:11:03;99417.34;;;20.28;66.11
69855;BME280;57146;48.140;16.304;2023-06-26T06:13:31;99415.59;;;20.40;63.11
69855;BME280;57146;48.140;16.304;2023-06-26T06:15:59;99420.41;;;20.53;63.69
69855;BME280;57146;48.140;16.304;2023-06-26T06:18:27;99418.63;;;20.65;59.34
69855;BME280;57146;48.140;16.304;2023-06-26T06:20:53;99423.38;;;20.78;61.11
69855;BME280;57146;48.140;16.304;2023-06-26T06:23:21;99420.84;;;20.89;58.77
69855;BME280;57146;48.140;16.304;2023-06-26T06:25:48;99421.69;;;20.97;59.17
69855;BME280;57146;48.140;16.304;2023-06-26T06:28:16;99413.72;;;21.04;58.66
69855;BME280;57146;48.140;16.304;2023-06-26T06:30:43;99419.16;;;21.11;58.60
69855;BME280;57146;48.140;16.304;2023-06-26T06:33:12;99427.31;;;21.22;59.51
69855;BME280;57146;48.140;16.304;2023-06-26T06:35:39;99422.81;;;21.33;59.75
69855;BME280;57146;48.140;16.304;2023-06-26T06:38:06;99420.25;;;21.40;56.02
69855;BME280;57146;48.140;16.304;2023-06-26T06:40:34;99424.22;;;21.57;58.60
69855;BME280;57146;48.140;16.304;2023-06-26T06:43:01;99418.56;;;21.69;57.74
69855;BME280;57146;48.140;16.304;2023-06-26T06:45:29;99422.38;;;21.65;54.20
69855;BME280;57146;48.140;16.304;2023-06-26T06:47:56;99413.97;;;21.66;54.07
69855;BME280;57146;48.140;16.304;2023-06-26T06:50:23;99412.88;;;21.74;54.71
69855;BME280;57146;48.140;16.304;2023-06-26T06:52:50;99416.38;;;21.79;53.61
69855;BME280;57146;48.140;16.304;2023-06-26T06:55:20;99415.72;;;21.92;56.45
69855;BME280;57146;48.140;16.304;2023-06-26T06:57:46;99414.22;;;21.98;53.39
69855;BME280;57146;48.140;16.304;2023-06-26T07:00:14;99414.59;;;22.00;53.82
69855;BME280;57146;48.140;16.304;2023-06-26T07:02:43;99419.66;;;22.09;54.50
69855;BME280;57146;48.140;16.304;2023-06-26T07:05:11;99412.13;;;22.29;54.95
69855;BME280;57146;48.140;16.304;2023-06-26T07:07:38;99418.25;;;22.30;52.21
69855;BME280;57146;48.140;16.304;2023-06-26T07:10:09;99412.56;;;22.35;53.01
69855;BME280;57146;48.140;16.304;2023-06-26T07:12:37;99419.84;;;22.38;52.56
69855;BME280;57146;48.140;16.304;2023-06-26T07:15:09;99422.53;;;22.38;52.38
69855;BME280;57146;48.140;16.304;2023-06-26T07:17:36;99414.88;;;22.40;52.80
69855;BME280;57146;48.140;16.304;2023-06-26T07:20:03;99421.75;;;22.41;52.15
69855;BME280;57146;48.140;16.304;2023-06-26T07:22:31;99418.75;;;22.46;52.58
69855;BME280;57146;48.140;16.304;2023-06-26T07:24:58;99420.00;;;22.66;55.34
69855;BME280;57146;48.140;16.304;2023-06-26T07:27:28;99415.00;;;22.65;52.85
69855;BME280;57146;48.140;16.304;2023-06-26T07:29:55;99418.06;;;22.63;52.35
69855;BME280;57146;48.140;16.304;2023-06-26T07:32:23;99420.38;;;22.68;52.14
69855;BME280;57146;48.140;16.304;2023-06-26T07:34:56;99420.03;;;22.74;50.70
69855;BME280;57146;48.140;16.304;2023-06-26T07:37:23;99419.66;;;22.86;52.89
69855;BME280;57146;48.140;16.304;2023-06-26T07:39:51;99413.63;;;23.03;52.72
69855;BME280;57146;48.140;16.304;2023-06-26T07:42:18;99418.25;;;23.06;51.33
69855;BME280;57146;48.140;16.304;2023-06-26T07:44:45;99413.25;;;23.08;52.17
69855;BME280;57146;48.140;16.304;2023-06-26T07:47:12;99422.47;;;23.14;49.90
69855;BME280;57146;48.140;16.304;2023-06-26T07:49:39;99418.63;;;23.12;49.22
69855;BME280;57146;48.140;16.304;2023-06-26T07:52:07;99411.38;;;23.30;49.67
69855;BME280;57146;48.140;16.304;2023-06-26T07:54:34;99413.28;;;23.44;50.76
69855;BME280;57146;48.140;16.304;2023-06-26T07:57:03;99416.78;;;23.41;48.51
69855;BME280;57146;48.140;16.304;2023-06-26T07:59:30;99416.00;;;23.55;49.00
69855;BME280;57146;48.140;16.304;2023-06-26T08:01:58;99412.19;;;23.59;48.53
69855;BME280;57146;48.140;16.304;2023-06-26T08:04:27;99416.03;;;23.69;49.56
69855;BME280;57146;48.140;16.304;2023-06-26T08:06:56;99416.78;;;23.62;48.83
69855;BME280;57146;48.140;16.304;2023-06-26T08:09:27;99408.34;;;23.75;49.33
69855;BME280;57146;48.140;16.304;2023-06-26T08:11:55;99403.38;;;23.91;49.84
69855;BME280;57146;48.140;16.304;2023-06-26T08:14:23;99409.88;;;23.86;48.79
69855;BME280;57146;48.140;16.304;2023-06-26T08:16:49;99398.75;;;23.88;49.35
69855;BME280;57146;48.140;16.304;2023-06-26T08:19:17;99405.25;;;24.01;50.54
69855;BME280;57146;48.140;16.304;2023-06-26T08:21:45;99407.56;;;24.06;49.99
69855;BME280;57146;48.140;16.304;2023-06-26T08:24:12;99408.72;;;24.12;49.48
69855;BME280;57146;48.140;16.304;2023-06-26T08:26:41;99397.56;;;24.14;45.91
69855;BME280;57146;48.140;16.304;2023-06-26T08:29:08;99409.47;;;24.17;46.83
69855;BME280;57146;48.140;16.304;2023-06-26T08:31:39;99399.06;;;24.19;47.85
69855;BME280;57146;48.140;16.304;2023-06-26T08:34:08;99394.47;;;24.23;47.19
69855;BME280;57146;48.140;16.304;2023-06-26T08:36:35;99399.44;;;24.24;47.81
69855;BME280;57146;48.140;16.304;2023-06-26T08:39:02;99397.53;;;24.25;48.16
69855;BME280;57146;48.140;16.304;2023-06-26T08:41:29;99395.59;;;24.32;49.90
69855;BME280;57146;48.140;16.304;2023-06-26T08:43:56;99396.00;;;24.20;47.62
69855;BME280;57146;48.140;16.304;2023-06-26T08:46:23;99397.16;;;24.30;48.33
69855;BME280;57146;48.140;16.304;2023-06-26T08:49:28;99399.41;;;24.53;48.08
69855;BME280;57146;48.140;16.304;2023-06-26T08:52:02;99400.97;;;24.29;47.07
69855;BME280;57146;48.140;16.304;2023-06-26T08:54:34;99389.44;;;24.32;48.03
69855;BME280;57146;48.140;16.304;2023-06-26T08:57:04;99390.56;;;24.49;50.94
69855;BME280;57146;48.140;16.304;2023-06-26T08:59:32;99384.34;;;24.66;47.14
69855;BME280;57146;48.140;16.304;2023-06-26T09:02:00;99384.72;;;24.68;47.58
69855;BME280;57146;48.140;16.304;2023-06-26T09:04:27;99393.09;;;24.88;48.14
69855;BME280;57146;48.140;16.304;2023-06-26T09:06:55;99381.09;;;24.96;46.52
69855;BME280;57146;48.140;16.304;2023-06-26T09:09:22;99378.81;;;24.98;47.34
69855;BME280;57146;48.140;16.304;2023-06-26T09:11:50;99374.63;;;24.87;46.22
69855;BME280;57146;48.140;16.304;2023-06-26T09:14:18;99374.34;;;24.67;47.42
69855;BME280;57146;48.140;16.304;2023-06-26T09:16:45;99375.56;;;24.58;48.74
69855;BME280;57146;48.140;16.304;2023-06-26T09:19:13;99370.50;;;24.64;47.87
69855;BME280;57146;48.140;16.304;2023-06-26T09:21:41;99366.28;;;24.67;48.95
69855;BME280;57146;48.140;16.304;2023-06-26T09:24:09;99365.88;;;24.68;48.55
69855;BME280;57146;48.140;16.304;2023-06-26T09:26:40;99366.53;;;24.87;48.71
69855;BME280;57146;48.140;16.304;2023-06-26T09:29:08;99366.47;;;25.01;49.68
69855;BME280;57146;48.140;16.304;2023-06-26T09:31:39;99362.59;;;25.05;47.05
69855;BME280;57146;48.140;16.304;2023-06-26T09:34:11;99370.22;;;25.18;44.95
69855;BME280;57146;48.140;16.304;2023-06-26T09:37:03;99372.56;;;25.16;45.81
69855;BME280;57146;48.140;16.304;2023-06-26T09:39:55;99367.19;;;25.08;46.22
69855;BME280;57146;48.140;16.304;2023-06-26T09:42:24;99367.28;;;24.94;46.36
69855;BME280;57146;48.140;16.304;2023-06-26T09:44:52;99365.66;;;25.11;47.39
69855;BME280;57146;48.140;16.304;2023-06-26T09:47:19;99360.97;;;25.22;45.78
69855;BME280;57146;48.140;16.304;2023-06-26T09:49:48;99366.66;;;25.35;46.24
69855;BME280;57146;48.140;16.304;2023-06-26T09:52:18;99360.41;;;25.45;45.98
69855;BME280;57146;48.140;16.304;2023-06-26T09:54:46;99359.22;;;25.46;43.36
69855;BME280;57146;48.140;16.304;2023-06-26T09:57:17;99358.81;;;25.51;45.35
69855;BME280;57146;48.140;16.304;2023-06-26T09:59:45;99364.63;;;25.46;45.02
69855;BME280;57146;48.140;16.304;2023-06-26T10:02:12;99361.53;;;25.51;45.42
69855;BME280;57146;48.140;16.304;2023-06-26T10:04:39;99350.69;;;25.59;44.96
69855;BME280;57146;48.140;16.304;2023-06-26T10:07:11;99349.91;;;25.58;43.85
69855;BME280;57146;48.140;16.304;2023-06-26T10:09:43;99344.88;;;25.60;43.62
69855;BME280;57146;48.140;16.304;2023-06-26T10:12:20;99343.72;;;25.58;43.68
69855;BME280;57146;48.140;16.304;2023-06-26T10:14:53;99347.91;;;25.66;42.67
69855;BME280;57146;48.140;16.304;2023-06-26T10:17:20;99343.19;;;25.77;44.33
69855;BME280;57146;48.140;16.304;2023-06-26T10:19:48;99335.28;;;25.97;44.69
69855;BME280;57146;48.140;16.304;2023-06-26T10:22:17;99332.56;;;26.00;42.61
69855;BME280;57146;48.140;16.304;2023-06-26T10:24:46;99325.25;;;26.01;45.69
69855;BME280;57146;48.140;16.304;2023-06-26T10:27:21;99322.72;;;25.87;43.09
69855;BME280;57146;48.140;16.304;2023-06-26T10:29:56;99326.75;;;25.64;42.36
69855;BME280;57146;48.140;16.304;2023-06-26T10:32:26;99330.63;;;25.60;43.62
69855;BME280;57146;48.140;16.304;2023-06-26T10:34:55;99330.09;;;25.75;42.59
69855;BME280;57146;48.140;16.304;2023-06-26T10:37:42;99318.91;;;25.77;43.19
69855;BME280;57146;48.140;16.304;2023-06-26T10:40:12;99328.03;;;25.94;42.78
69855;BME280;57146;48.140;16.304;2023-06-26T10:42:40;99324.19;;;25.91;42.64
69855;BME280;57146;48.140;16.304;2023-06-26T10:47:40;99308.47;;;25.83;42.45
69855;BME280;57146;48.140;16.304;2023-06-26T10:50:29;99304.56;;;25.91;46.03
69855;BME280;57146;48.140;16.304;2023-06-26T10:53:11;99303.41;;;25.88;42.26
69855;BME280;57146;48.140;16.304;2023-06-26T10:55:48;99301.81;;;25.94;43.37
69855;BME280;57146;48.140;16.304;2023-06-26T10:58:41;99305.66;;;25.93;41.25
69855;BME280;57146;48.140;16.304;2023-06-26T11:03:44;99306.69;;;26.07;42.38
69855;BME280;57146;48.140;16.304;2023-06-26T11:06:19;99304.56;;;26.21;42.08
69855;BME280;57146;48.140;16.304;2023-06-26T11:08:51;99305.50;;;26.08;42.14
69855;BME280;57146;48.140;16.304;2023-06-26T11:14:23;99299.50;;;26.27;42.41
69855;BME280;57146;48.140;16.304;2023-06-26T11:16:51;99300.53;;;26.37;42.21
69855;BME280;57146;48.140;16.304;2023-06-26T11:19:20;99295.09;;;26.40;40.40
69855;BME280;57146;48.140;16.304;2023-06-26T11:22:13;99299.22;;;26.52;41.22
69855;BME280;57146;48.140;16.304;2023-06-26T11:24:45;99292.34;;;26.47;40.69
69855;BME280;57146;48.140;16.304;2023-06-26T11:27:12;99287.78;;;26.68;41.96
69855;BME280;57146;48.140;16.304;2023-06-26T11:30:05;99289.69;;;26.71;40.60
69855;BME280;57146;48.140;16.304;2023-06-26T11:32:38;99293.97;;;26.68;39.91
69855;BME280;57146;48.140;16.304;2023-06-26T11:35:06;99290.25;;;26.59;39.79
69855;BME280;57146;48.140;16.304;2023-06-26T11:37:33;99288.25;;;26.63;39.58
69855;BME280;57146;48.140;16.304;2023-06-26T11:40:21;99284.81;;;26.62;42.66
69855;BME280;57146;48.140;16.304;2023-06-26T11:42:49;99279.25;;;26.73;41.33
69855;BME280;57146;48.140;16.304;2023-06-26T11:45:16;99282.13;;;26.86;41.73
69855;BME280;57146;48.140;16.304;2023-06-26T11:47:43;99285.13;;;26.91;40.12
69855;BME280;57146;48.140;16.304;2023-06-26T11:50:17;99277.84;;;26.88;40.86
69855;BME280;57146;48.140;16.304;2023-06-26T11:53:09;99272.44;;;26.88;40.04
69855;BME280;57146;48.140;16.304;2023-06-26T11:55:41;99275.16;;;26.88;40.79
69855;BME280;57146;48.140;16.304;2023-06-26T11:58:08;99276.97;;;26.95;38.98
69855;BME280;57146;48.140;16.304;2023-06-26T12:00:41;99270.06;;;26.94;39.00
69855;BME280;57146;48.140;16.304;2023-06-26T12:03:08;99264.06;;;27.06;40.20
69855;BME280;57146;48.140;16.304;2023-06-26T12:05:36;99262.06;;;27.10;40.06
69855;BME280;57146;48.140;16.304;2023-06-26T12:08:10;99262.72;;;27.18;40.41
69855;BME280;57146;48.140;16.304;2023-06-26T12:10:38;99263.16;;;27.16;40.20
69855;BME280;57146;48.140;16.304;2023-06-26T12:13:09;99261.91;;;27.21;39.52
69855;BME280;57146;48.140;16.304;2023-06-26T12:15:36;99254.63;;;27.18;39.10
69855;BME280;57146;48.140;16.304;2023-06-26T12:18:09;99254.94;;;27.24;39.09
69855;BME280;57146;48.140;16.304;2023-06-26T12:20:39;99248.75;;;27.23;38.91
69855;BME280;57146;48.140;16.304;2023-06-26T12:23:12;99246.69;;;27.31;39.48
69855;BME280;57146;48.140;16.304;2023-06-26T12:25:39;99241.72;;;27.29;38.50
69855;BME280;57146;48.140;16.304;2023-06-26T12:28:18;99242.88;;;27.28;38.92
69855;BME280;57146;48.140;16.304;2023-06-26T12:31:12;99241.72;;;27.29;38.93
69855;BME280;57146;48.140;16.304;2023-06-26T12:33:39;99236.13;;;27.40;40.49
69855;BME280;57146;48.140;16.304;2023-06-26T12:36:13;99235.56;;;27.49;39.57
69855;BME280;57146;48.140;16.304;2023-06-26T12:39:05;99239.31;;;27.55;39.97
69855;BME280;57146;48.140;16.304;2023-06-26T12:42:00;99235.50;;;27.52;39.54
69855;BME280;57146;48.140;16.304;2023-06-26T12:44:33;99233.41;;;27.60;39.84
69855;BME280;57146;48.140;16.304;2023-06-26T12:47:01;99235.28;;;27.63;40.23
69855;BME280;57146;48.140;16.304;2023-06-26T12:49:36;99227.06;;;27.50;38.72
69855;BME280;57146;48.140;16.304;2023-06-26T12:52:29;99230.72;;;27.60;40.40
69855;BME280;57146;48.140;16.304;2023-06-26T12:54:58;99217.47;;;27.65;40.03
69855;BME280;57146;48.140;16.304;2023-06-26T12:57:25;99227.47;;;27.68;39.78
69855;BME280;57146;48.140;16.304;2023-06-26T12:59:52;99226.34;;;27.66;40.06
69855;BME280;57146;48.140;16.304;2023-06-26T13:02:19;99222.47;;;27.67;40.22
69855;BME280;57146;48.140;16.304;2023-06-26T13:04:46;99228.72;;;27.84;40.63
69855;BME280;57146;48.140;16.304;2023-06-26T13:07:14;99229.78;;;27.90;39.85
69855;BME280;57146;48.140;16.304;2023-06-26T13:10:06;99226.50;;;27.99;39.63
69855;BME280;57146;48.140;16.304;2023-06-26T13:12:34;99229.34;;;27.91;39.55
69855;BME280;57146;48.140;16.304;2023-06-26T13:15:02;99218.28;;;27.86;40.55
69855;BME280;57146;48.140;16.304;2023-06-26T13:17:29;99226.09;;;27.80;39.44
69855;BME280;57146;48.140;16.304;2023-06-26T13:19:56;99213.06;;;27.75;41.05
69855;BME280;57146;48.140;16.304;2023-06-26T13:22:23;99210.00;;;27.73;40.35
69855;BME280;57146;48.140;16.304;2023-06-26T13:24:50;99215.28;;;27.80;40.92
69855;BME280;57146;48.140;16.304;2023-06-26T13:27:17;99211.00;;;27.83;40.70